Time;durP1;ratioP1;P1;durP2;ratioP2;P2;SDS_P1;SDS_P2;PMS_P1;PMS_P2;Temp;Humidity;BMP_temperature;BMP_pressure;BME280_temperature;BME280_humidity;BME280_pressure;Samples;Min_cycle;Max_cycle;Signal;HPM_P1;HPM_P2
2022/01/06 04:03:06;;;;;;;22.67;4.55;;;2.90;90.20;;;;;;5092813;28;20550;-49
2022/01/06 04:05:33;;;;;;;17.13;3.15;;;3.00;90.30;;;;;;5091374;28;20122;-50
2022/01/06 04:07:59;;;;;;;19.42;3.28;;;3.10;89.80;;;;;;5091428;28;20047;-50
2022/01/06 04:10:25;;;;;;;20.88;3.45;;;3.10;89.40;;;;;;5092352;28;20020;-49
2022/01/06 04:12:51;;;;;;;19.27;3.97;;;3.20;89.30;;;;;;5092016;28;20043;-37
2022/01/06 04:15:17;;;;;;;12.68;2.45;;;3.20;89.10;;;;;;5092318;28;20062;-37
2022/01/06 04:17:43;;;;;;;12.55;3.08;;;3.20;88.90;;;;;;5091136;28;20095;-37
2022/01/06 04:20:12;;;;;;;30.45;3.50;;;3.20;89.00;;;;;;5090470;28;20078;-37
2022/01/06 04:22:39;;;;;;;16.35;3.70;;;3.20;88.90;;;;;;5091137;28;20024;-37
2022/01/06 04:25:05;;;;;;;23.90;3.28;;;3.20;89.00;;;;;;5092198;28;20039;-38
2022/01/06 04:27:31;;;;;;;20.20;5.38;;;3.10;89.10;;;;;;5092452;28;20414;-38
2022/01/06 04:29:57;;;;;;;17.00;2.83;;;3.10;89.10;;;;;;5091917;28;20131;-37
2022/01/06 04:32:23;;;;;;;17.10;3.65;;;3.10;88.90;;;;;;5090502;28;20056;-38
2022/01/06 04:34:49;;;;;;;22.33;4.18;;;3.10;89.10;;;;;;5091739;28;20090;-37
2022/01/06 04:37:14;;;;;;;14.27;3.50;;;3.10;89.00;;;;;;5091291;28;20102;-37
2022/01/06 04:39:40;;;;;;;20.02;2.92;;;3.10;88.90;;;;;;5091383;28;20020;-37
2022/01/06 04:42:06;;;;;;;14.73;4.07;;;3.10;88.80;;;;;;5089929;28;20103;-37
2022/01/06 04:44:32;;;;;;;16.45;4.90;;;3.10;88.80;;;;;;5092400;28;20024;-37
2022/01/06 04:46:57;;;;;;;24.48;2.92;;;3.10;88.90;;;;;;5091511;28;20024;-38
2022/01/06 04:49:23;;;;;;;17.45;3.00;;;3.10;88.80;;;;;;5090471;28;20422;-37
2022/01/06 04:51:49;;;;;;;18.02;3.70;;;3.10;88.80;;;;;;5092154;28;20028;-37
2022/01/06 04:54:15;;;;;;;19.95;3.15;;;3.10;88.90;;;;;;5091637;28;20059;-37
2022/01/06 04:56:40;;;;;;;16.40;5.45;;;3.10;88.90;;;;;;5091206;28;20058;-37
2022/01/06 04:59:08;;;;;;;16.02;2.88;;;3.10;88.70;;;;;;5091346;28;20047;-37
2022/01/06 05:01:35;;;;;;;18.10;3.42;;;3.10;88.80;;;;;;5092135;28;20081;-37
2022/01/06 05:04:02;;;;;;;15.60;3.47;;;3.00;88.90;;;;;;5091735;28;20024;-37
2022/01/06 05:06:27;;;;;;;21.65;4.15;;;3.00;89.10;;;;;;5091454;28;20021;-37
2022/01/06 05:08:53;;;;;;;17.88;4.25;;;2.90;89.20;;;;;;5091681;28;20089;-37
2022/01/06 05:11:19;;;;;;;17.15;3.03;;;2.80;89.30;;;;;;5091087;28;20024;-38
2022/01/06 05:13:46;;;;;;;23.33;5.32;;;2.90;89.30;;;;;;5081456;28;20036;-37
2022/01/06 05:16:11;;;;;;;26.73;3.35;;;2.80;89.40;;;;;;5076448;28;20021;-38
2022/01/06 05:18:38;;;;;;;27.55;4.38;;;2.80;89.80;;;;;;5078061;28;20081;-37
2022/01/06 05:21:07;;;;;;;15.70;3.10;;;2.80;89.60;;;;;;5077147;28;20107;-37
2022/01/06 05:23:34;;;;;;;17.77;3.78;;;2.80;89.80;;;;;;5074804;28;20111;-37
2022/01/06 05:26:00;;;;;;;25.38;3.08;;;2.70;89.80;;;;;;5077124;28;20070;-37
2022/01/06 05:28:26;;;;;;;22.50;4.85;;;2.70;90.00;;;;;;5074886;28;20111;-37
2022/01/06 05:30:52;;;;;;;16.25;5.10;;;2.70;90.10;;;;;;5077205;28;20092;-37
2022/01/06 05:33:18;;;;;;;24.50;3.22;;;2.60;90.10;;;;;;5077461;28;20560;-38
2022/01/06 05:35:44;;;;;;;24.80;4.18;;;2.60;90.30;;;;;;5075084;28;20377;-37
2022/01/06 05:38:10;;;;;;;23.70;3.80;;;2.70;90.10;;;;;;5075871;28;20403;-38
2022/01/06 05:40:36;;;;;;;21.85;3.90;;;2.60;90.20;;;;;;5077328;28;20243;-37
2022/01/06 05:43:02;;;;;;;19.25;4.18;;;2.60;90.30;;;;;;5077285;28;20442;-37
2022/01/06 05:45:29;;;;;;;20.42;3.83;;;2.60;90.20;;;;;;5076188;28;20036;-38
2022/01/06 05:47:55;;;;;;;16.60;2.92;;;2.70;90.50;;;;;;5077182;28;20423;-37
2022/01/06 05:50:21;;;;;;;23.23;4.40;;;2.60;90.30;;;;;;5075376;28;20020;-37
2022/01/06 05:52:47;;;;;;;17.88;3.75;;;2.70;90.30;;;;;;5075917;28;20032;-37
2022/01/06 05:55:13;;;;;;;16.02;4.82;;;2.80;90.10;;;;;;5076413;28;20063;-37
2022/01/06 05:57:38;;;;;;;20.83;4.97;;;2.90;89.80;;;;;;5076904;28;20025;-38
2022/01/06 06:00:08;;;;;;;25.85;4.97;;;2.90;89.40;;;;;;5076274;28;20059;-37
2022/01/06 06:02:34;;;;;;;19.88;3.47;;;2.90;89.20;;;;;;5075376;28;20408;-49
2022/01/06 06:05:00;;;;;;;14.10;4.43;;;2.90;89.10;;;;;;5076565;28;20020;-38
2022/01/06 06:07:26;;;;;;;22.88;3.95;;;2.90;89.30;;;;;;5076412;28;20028;-37
2022/01/06 06:09:51;;;;;;;15.25;3.85;;;2.80;89.20;;;;;;5076195;28;20031;-37
2022/01/06 06:12:17;;;;;;;17.17;3.78;;;2.90;89.10;;;;;;5076124;28;20083;-38
2022/01/06 06:14:43;;;;;;;20.23;3.25;;;2.80;89.20;;;;;;5076066;28;20035;-38
2022/01/06 06:17:09;;;;;;;15.13;2.97;;;2.80;89.40;;;;;;5076356;28;20100;-38
2022/01/06 06:19:35;;;;;;;15.13;3.30;;;2.80;89.40;;;;;;5076326;28;20036;-38
2022/01/06 06:22:00;;;;;;;16.52;3.50;;;2.90;89.30;;;;;;5074588;28;20028;-37
2022/01/06 06:24:26;;;;;;;12.68;2.95;;;2.80;89.60;;;;;;5074301;28;20116;-38
2022/01/06 06:26:52;;;;;;;15.32;3.85;;;2.80;89.80;;;;;;5075099;28;20044;-37
2022/01/06 06:29:19;;;;;;;19.58;3.67;;;2.80;89.70;;;;;;5076564;28;20539;-37
2022/01/06 06:31:48;;;;;;;17.27;3.38;;;2.80;89.70;;;;;;5075255;28;20174;-38
2022/01/06 06:34:14;;;;;;;21.08;5.47;;;2.80;89.70;;;;;;5073130;28;20021;-39
2022/01/06 06:36:40;;;;;;;23.15;3.30;;;2.80;89.80;;;;;;5075241;28;20111;-37
2022/01/06 06:39:07;;;;;;;16.17;2.58;;;2.80;89.60;;;;;;5075605;28;20036;-38
2022/01/06 06:41:33;;;;;;;18.95;2.97;;;2.80;89.40;;;;;;5075541;28;20103;-37
2022/01/06 06:43:58;;;;;;;13.35;2.83;;;2.80;89.50;;;;;;5075344;28;20078;-37
2022/01/06 06:46:24;;;;;;;16.95;3.80;;;2.70;89.90;;;;;;5074356;28;20028;-38
2022/01/06 06:48:50;;;;;;;18.92;3.20;;;2.50;90.00;;;;;;5075702;28;20051;-40
2022/01/06 06:51:16;;;;;;;19.63;5.10;;;2.50;90.30;;;;;;5075120;28;20415;-38
2022/01/06 06:53:42;;;;;;;19.92;2.92;;;2.50;90.30;;;;;;5073357;28;20131;-38
2022/01/06 06:56:08;;;;;;;19.42;3.40;;;2.40;90.40;;;;;;5073448;28;20032;-37
2022/01/06 06:58:34;;;;;;;8.35;3.45;;;2.30;90.50;;;;;;5073276;28;20031;-36
2022/01/06 07:01:00;;;;;;;15.60;3.47;;;2.50;90.70;;;;;;5074284;28;20036;-37
2022/01/06 07:03:25;;;;;;;17.80;3.50;;;2.50;90.60;;;;;;5074809;28;20025;-37
2022/01/06 07:05:51;;;;;;;22.75;5.00;;;2.40;90.50;;;;;;5074523;28;20017;-37
2022/01/06 07:08:17;;;;;;;21.05;3.75;;;2.30;90.80;;;;;;5074406;28;20020;-38
2022/01/06 07:10:43;;;;;;;17.95;4.60;;;2.20;91.00;;;;;;5074236;28;20043;-37
2022/01/06 07:13:09;;;;;;;17.25;4.57;;;2.20;91.40;;;;;;5074796;28;20062;-37
2022/01/06 07:15:41;;;;;;;17.17;4.90;;;2.10;91.70;;;;;;5073946;28;20432;-38
2022/01/06 07:18:07;;;;;;;20.10;4.65;;;2.10;92.00;;;;;;5074174;28;20036;-38
2022/01/06 07:20:32;;;;;;;26.15;4.38;;;2.10;92.00;;;;;;5074361;28;20071;-38
2022/01/06 07:22:58;;;;;;;23.88;4.95;;;2.00;92.10;;;;;;5074417;28;20400;-38
2022/01/06 07:25:24;;;;;;;18.58;4.57;;;2.00;92.30;;;;;;5074614;28;20372;-37
2022/01/06 07:27:50;;;;;;;33.03;7.45;;;2.00;92.30;;;;;;5073844;28;20021;-38
2022/01/06 07:30:15;;;;;;;16.58;4.13;;;2.00;92.50;;;;;;5074049;28;20025;-38
2022/01/06 07:32:46;;;;;;;14.77;4.07;;;1.90;92.40;;;;;;5073966;28;20062;-38
2022/01/06 07:35:12;;;;;;;16.40;4.60;;;1.90;92.40;;;;;;5073757;28;20035;-38
2022/01/06 07:37:38;;;;;;;24.38;4.88;;;1.80;92.50;;;;;;5073133;28;20028;-38
2022/01/06 07:40:06;;;;;;;23.92;5.00;;;1.80;92.50;;;;;;5073491;28;20334;-38
2022/01/06 07:42:32;;;;;;;30.65;4.38;;;1.80;92.80;;;;;;5074110;28;20033;-39
2022/01/06 07:45:00;;;;;;;19.95;5.38;;;1.70;92.90;;;;;;5074924;28;20523;-38
2022/01/06 07:47:26;;;;;;;22.80;5.13;;;1.70;93.00;;;;;;5072471;28;20028;-38
2022/01/06 07:49:51;;;;;;;13.13;4.35;;;1.70;93.10;;;;;;5071742;28;20476;-38
2022/01/06 07:52:18;;;;;;;25.92;5.38;;;1.70;93.10;;;;;;5073645;28;20056;-37
2022/01/06 07:54:44;;;;;;;29.30;5.32;;;1.70;93.20;;;;;;5073404;28;20028;-38
2022/01/06 07:57:10;;;;;;;22.50;5.90;;;1.70;93.10;;;;;;5072789;28;20523;-38
2022/01/06 07:59:36;;;;;;;33.58;5.47;;;1.60;93.20;;;;;;5074278;28;20056;-38
2022/01/06 14:03:06;;;;;;;29.27;11.15;;;4.90;85.20;;;;;;5153069;27;20109;-51
2022/01/06 14:05:31;;;;;;;32.30;11.45;;;4.90;85.40;;;;;;5152833;27;20520;-51
2022/01/06 14:07:57;;;;;;;24.55;9.77;;;4.90;85.30;;;;;;5152441;27;20023;-51
2022/01/06 14:10:24;;;;;;;32.88;11.45;;;4.90;85.40;;;;;;5152002;27;20065;-51
2022/01/06 14:12:53;;;;;;;39.75;11.65;;;4.90;85.40;;;;;;5152248;27;20030;-50
2022/01/06 14:15:19;;;;;;;32.45;14.77;;;4.80;85.50;;;;;;5152825;27;20509;-52
2022/01/06 14:17:45;;;;;;;27.58;11.45;;;4.90;85.80;;;;;;5151784;27;20023;-48
2022/01/06 14:20:11;;;;;;;28.98;12.85;;;4.90;85.70;;;;;;5150571;27;20098;-50
2022/01/06 14:22:37;;;;;;;30.17;14.07;;;4.90;86.00;;;;;;5152373;27;20023;-49
2022/01/06 14:25:03;;;;;;;42.55;15.95;;;5.00;85.90;;;;;;5152654;27;20501;-49
2022/01/06 14:27:29;;;;;;;27.92;13.27;;;5.00;85.70;;;;;;5152452;27;20528;-49
2022/01/06 14:29:54;;;;;;;37.00;13.10;;;5.00;85.90;;;;;;5150483;27;20110;-49
2022/01/06 14:32:20;;;;;;;40.78;14.90;;;5.00;86.00;;;;;;5152361;27;20022;-49
2022/01/06 14:34:46;;;;;;;34.38;14.95;;;4.90;86.20;;;;;;5152067;27;20451;-49
2022/01/06 14:37:11;;;;;;;37.55;14.55;;;5.00;86.50;;;;;;5152635;27;20054;-49
2022/01/06 14:39:37;;;;;;;38.55;13.75;;;5.00;86.20;;;;;;5150355;27;20047;-49
2022/01/06 14:42:06;;;;;;;35.38;12.23;;;5.00;85.80;;;;;;5150267;27;20541;-48
2022/01/06 14:44:35;;;;;;;25.05;12.65;;;4.90;86.00;;;;;;5151072;27;20035;-47
2022/01/06 14:47:01;;;;;;;39.22;13.52;;;5.00;85.90;;;;;;5151474;27;20072;-51
2022/01/06 14:49:27;;;;;;;30.70;12.75;;;5.10;85.90;;;;;;5152162;27;20019;-51
2022/01/06 14:51:55;;;;;;;37.45;17.13;;;5.10;85.60;;;;;;5151221;27;20046;-47
2022/01/06 14:54:23;;;;;;;36.70;14.88;;;5.00;85.60;;;;;;5151040;27;20106;-49
2022/01/06 14:56:49;;;;;;;33.15;13.35;;;5.00;85.60;;;;;;5150302;27;20448;-49
2022/01/06 14:59:16;;;;;;;31.58;12.10;;;4.90;85.90;;;;;;5150566;27;20019;-50
2022/01/06 15:01:41;;;;;;;36.10;12.80;;;4.90;86.30;;;;;;5149403;27;20074;-49
2022/01/06 15:04:07;;;;;;;31.38;13.07;;;4.80;86.30;;;;;;5151305;27;20019;-48
2022/01/06 15:06:33;;;;;;;30.88;13.55;;;4.80;86.20;;;;;;5151082;27;20030;-49
2022/01/06 15:08:59;;;;;;;42.42;14.85;;;4.80;86.50;;;;;;5151524;27;20025;-48
2022/01/06 15:11:24;;;;;;;36.55;12.80;;;4.70;86.70;;;;;;5150989;27;20023;-48
2022/01/06 15:13:50;;;;;;;36.28;12.13;;;4.60;86.80;;;;;;5140921;27;20031;-51
2022/01/06 15:16:16;;;;;;;36.13;15.63;;;4.50;87.10;;;;;;5136058;27;20024;-48
2022/01/06 15:18:41;;;;;;;32.28;13.38;;;4.50;87.20;;;;;;5135833;27;20422;-50
2022/01/06 15:21:07;;;;;;;35.25;12.68;;;4.50;87.50;;;;;;5136832;27;20424;-49
2022/01/06 15:23:33;;;;;;;30.40;12.43;;;4.40;87.50;;;;;;5137068;27;20098;-48
2022/01/06 15:25:59;;;;;;;32.42;12.20;;;4.50;87.70;;;;;;5137806;27;20061;-53
2022/01/06 15:28:26;;;;;;;38.05;11.48;;;4.50;87.70;;;;;;5136876;27;20362;-49
2022/01/06 15:30:51;;;;;;;34.15;13.82;;;4.40;87.70;;;;;;5136790;27;20056;-48
2022/01/06 15:33:17;;;;;;;38.78;15.98;;;4.30;88.10;;;;;;5137751;27;20378;-49
2022/01/06 15:35:43;;;;;;;33.05;12.70;;;4.30;88.10;;;;;;5137388;27;20023;-49
2022/01/06 15:38:09;;;;;;;34.22;14.75;;;4.30;88.20;;;;;;5138221;27;20019;-51
2022/01/06 15:40:35;;;;;;;36.80;15.18;;;4.30;88.60;;;;;;5136149;27;20327;-49
2022/01/06 15:43:03;;;;;;;32.05;14.52;;;4.20;88.60;;;;;;5137559;27;20019;-48
2022/01/06 15:45:28;;;;;;;31.40;13.52;;;4.10;88.80;;;;;;5137289;27;20019;-49
2022/01/06 15:47:54;;;;;;;31.63;14.68;;;4.00;89.20;;;;;;5137919;27;20486;-51
2022/01/06 15:50:20;;;;;;;28.27;13.27;;;4.00;89.60;;;;;;5136752;27;20019;-51
2022/01/06 15:52:46;;;;;;;33.92;15.05;;;4.00;89.90;;;;;;5136089;27;20023;-48
2022/01/06 15:55:12;;;;;;;30.52;13.57;;;3.90;89.80;;;;;;5135032;27;20026;-50
2022/01/06 15:57:38;;;;;;;48.25;15.35;;;3.90;89.70;;;;;;5137227;27;20494;-48
2022/01/06 16:00:29;;;;;;;33.03;14.02;;;3.80;90.00;;;;;;5137026;27;20027;-51
2022/01/06 16:05:46;;;;;;;34.70;14.70;;;3.80;90.30;;;;;;5137216;27;19986;-48
2022/01/06 16:08:16;;;;;;;40.70;15.52;;;3.80;90.60;;;;;;5136315;27;20050;-49
2022/01/06 16:10:48;;;;;;;42.75;15.13;;;3.70;90.60;;;;;;5135975;27;20047;-48
2022/01/06 16:13:15;;;;;;;34.22;14.75;;;3.70;90.70;;;;;;5136103;27;20019;-49
2022/01/06 16:15:41;;;;;;;30.92;14.90;;;3.70;90.80;;;;;;5135996;27;20034;-51
2022/01/06 16:18:06;;;;;;;39.08;13.68;;;3.70;90.70;;;;;;5135603;27;20027;-49
2022/01/06 16:20:33;;;;;;;32.78;15.70;;;3.60;90.90;;;;;;5135145;27;20019;-53
2022/01/06 16:22:59;;;;;;;28.27;14.32;;;3.60;91.00;;;;;;5135375;27;20071;-49
2022/01/06 16:25:25;;;;;;;36.17;15.95;;;3.60;91.20;;;;;;5134481;27;20046;-49
2022/01/06 16:27:51;;;;;;;44.63;17.27;;;3.70;91.20;;;;;;5135628;27;20046;-47
2022/01/06 16:30:29;;;;;;;35.50;14.13;;;3.60;91.30;;;;;;5134061;27;20023;-50
2022/01/06 16:32:54;;;;;;;45.33;16.00;;;3.60;91.30;;;;;;5135487;27;20023;-49
2022/01/06 16:35:25;;;;;;;37.83;19.23;;;3.60;91.30;;;;;;5136054;27;20019;-48
2022/01/06 16:37:51;;;;;;;41.10;17.35;;;3.70;91.20;;;;;;5135930;27;20027;-50
2022/01/06 16:40:16;;;;;;;39.20;15.55;;;3.70;91.20;;;;;;5135103;27;20038;-47
2022/01/06 16:42:43;;;;;;;40.90;16.25;;;3.80;91.10;;;;;;5135714;27;20020;-51
2022/01/06 16:45:09;;;;;;;34.25;17.05;;;3.80;91.10;;;;;;5134658;27;20042;-49
2022/01/06 16:47:35;;;;;;;38.70;15.60;;;3.80;90.90;;;;;;5134950;27;20019;-48
2022/01/06 16:50:00;;;;;;;33.55;14.35;;;3.80;90.90;;;;;;5134073;27;20069;-54
2022/01/06 16:52:26;;;;;;;46.97;16.00;;;3.80;90.90;;;;;;5135219;27;20405;-49
2022/01/06 16:54:52;;;;;;;34.13;16.60;;;3.80;90.80;;;;;;5135619;27;20076;-51
2022/01/06 16:57:19;;;;;;;41.30;15.65;;;3.80;90.80;;;;;;5135480;27;20046;-50
2022/01/06 16:59:44;;;;;;;31.23;14.82;;;3.90;90.70;;;;;;5135852;27;20103;-49
2022/01/06 17:02:10;;;;;;;29.10;14.05;;;3.90;90.60;;;;;;5135577;27;20047;-48
2022/01/06 17:04:36;;;;;;;31.15;14.45;;;3.80;90.60;;;;;;5133868;27;20489;-51
2022/01/06 17:07:02;;;;;;;31.45;13.05;;;4.00;90.30;;;;;;5134405;27;20110;-49
2022/01/06 17:09:28;;;;;;;37.15;14.80;;;3.90;90.20;;;;;;5135323;27;20068;-51
2022/01/06 17:11:54;;;;;;;42.33;16.15;;;3.90;90.30;;;;;;5135714;27;20390;-48
2022/01/06 17:14:20;;;;;;;34.15;13.82;;;3.80;90.20;;;;;;5133711;27;20019;-47
2022/01/06 17:16:45;;;;;;;34.30;14.52;;;3.70;90.60;;;;;;5135681;27;20106;-48
2022/01/06 17:19:12;;;;;;;35.00;14.35;;;3.60;90.80;;;;;;5134085;27;20391;-49
2022/01/06 17:21:38;;;;;;;35.80;15.65;;;3.50;91.20;;;;;;5134554;27;20417;-48
2022/01/06 17:24:04;;;;;;;27.15;14.52;;;3.40;91.40;;;;;;5133610;27;20019;-48
2022/01/06 17:26:30;;;;;;;32.88;14.40;;;3.40;91.60;;;;;;5133947;27;20367;-49
2022/01/06 17:28:58;;;;;;;39.25;15.35;;;3.40;91.60;;;;;;5133392;27;20027;-51
2022/01/06 17:31:24;;;;;;;47.30;17.48;;;3.40;91.70;;;;;;5135408;27;20015;-49
2022/01/06 17:33:50;;;;;;;42.25;15.43;;;3.40;91.70;;;;;;5134181;27;20034;-48
2022/01/06 17:36:18;;;;;;;44.00;16.10;;;3.40;91.50;;;;;;5135736;27;20054;-51
2022/01/06 17:38:46;;;;;;;36.65;15.77;;;3.30;91.60;;;;;;5133343;27;20023;-48
2022/01/06 17:41:11;;;;;;;35.70;15.18;;;3.30;91.80;;;;;;5135881;27;20091;-49
2022/01/06 17:43:37;;;;;;;35.97;15.13;;;3.30;91.70;;;;;;5136295;27;20027;-48
2022/01/06 17:46:05;;;;;;;35.78;15.93;;;3.20;91.80;;;;;;5136028;27;20019;-48
2022/01/06 17:48:31;;;;;;;47.85;16.58;;;3.20;91.70;;;;;;5135505;27;20019;-48
2022/01/06 17:51:02;;;;;;;35.22;13.88;;;3.20;91.80;;;;;;5134514;27;20030;-48
2022/01/06 17:53:29;;;;;;;42.03;17.63;;;3.10;92.00;;;;;;5135083;27;20019;-49
2022/01/06 17:55:55;;;;;;;51.58;24.77;;;3.20;92.10;;;;;;5134884;27;20031;-50
2022/01/06 17:58:22;;;;;;;40.67;15.45;;;3.10;91.90;;;;;;5134810;27;20019;-49
2022/01/06 18:00:48;;;;;;;41.53;16.75;;;3.00;92.00;;;;;;5133200;28;20067;-48
2022/01/06 18:03:14;;;;;;;36.03;16.58;;;3.00;92.30;;;;;;5133893;28;20026;-48
2022/01/06 18:05:41;;;;;;;38.03;15.20;;;3.00;92.20;;;;;;5135294;28;20463;-50
2022/01/06 18:13:20;;;;;;;35.45;17.00;;;3.00;92.30;;;;;;5134224;28;20038;-49
2022/01/06 18:15:47;;;;;;;34.85;15.98;;;3.10;92.10;;;;;;5135342;28;20079;-48
2022/01/06 18:18:13;;;;;;;44.00;17.65;;;3.00;92.00;;;;;;5134476;27;20019;-48
2022/01/06 18:20:40;;;;;;;37.28;15.27;;;3.10;91.90;;;;;;5134980;27;20023;-47
2022/01/06 18:23:06;;;;;;;35.67;14.80;;;3.10;91.90;;;;;;5132934;28;20104;-52
2022/01/06 18:25:32;;;;;;;42.22;17.73;;;3.10;91.60;;;;;;5133523;28;20043;-48
2022/01/06 18:27:58;;;;;;;34.15;15.45;;;3.10;91.60;;;;;;5134180;27;20024;-49
2022/01/06 18:30:24;;;;;;;33.35;14.35;;;3.10;91.50;;;;;;5134374;28;20463;-50
2022/01/06 18:32:51;;;;;;;33.22;13.82;;;3.10;91.40;;;;;;5135850;28;20024;-49
2022/01/06 18:35:18;;;;;;;32.03;14.88;;;3.20;91.30;;;;;;5134305;27;20055;-48
2022/01/06 18:37:46;;;;;;;36.90;12.90;;;3.20;91.00;;;;;;5134570;27;20146;-50
2022/01/06 18:40:13;;;;;;;36.15;13.63;;;3.30;90.90;;;;;;5134522;27;20027;-48
2022/01/06 18:42:39;;;;;;;29.75;13.43;;;3.30;90.70;;;;;;5134596;27;20024;-48
2022/01/06 18:45:05;;;;;;;34.63;13.23;;;3.30;90.60;;;;;;5134609;27;20065;-49
2022/01/06 18:47:32;;;;;;;27.83;14.10;;;3.30;90.50;;;;;;5134528;27;20094;-49
2022/01/06 18:50:04;;;;;;;30.05;13.57;;;3.30;90.40;;;;;;5136138;27;20019;-52
2022/01/06 18:52:30;;;;;;;56.65;19.60;;;3.20;90.50;;;;;;5136659;27;20027;-49
2022/01/06 18:54:56;;;;;;;37.95;13.85;;;3.20;90.40;;;;;;5137784;27;20489;-49
2022/01/06 18:57:23;;;;;;;32.65;14.23;;;3.30;90.20;;;;;;5119231;27;20023;-49
2022/01/06 18:59:49;;;;;;;34.08;13.80;;;3.20;90.30;;;;;;5137176;27;20027;-49
2022/01/06 19:02:15;;;;;;;32.17;13.90;;;3.20;90.10;;;;;;5137708;27;20039;-48
2022/01/06 19:04:41;;;;;;;24.38;13.27;;;3.20;90.00;;;;;;5137309;27;20444;-49
2022/01/06 19:07:06;;;;;;;36.20;13.88;;;3.10;90.20;;;;;;5137983;27;20482;-49
2022/01/06 19:09:33;;;;;;;34.08;13.52;;;3.10;90.10;;;;;;5138098;27;20022;-50
2022/01/06 19:11:58;;;;;;;34.45;14.00;;;3.10;90.20;;;;;;5137718;27;20023;-49
2022/01/06 19:14:24;;;;;;;32.05;13.05;;;3.10;90.10;;;;;;5138451;27;20054;-48
2022/01/06 19:16:50;;;;;;;31.48;13.38;;;3.10;89.90;;;;;;5137700;27;20102;-52
2022/01/06 19:19:15;;;;;;;28.65;12.10;;;3.10;90.00;;;;;;5138255;27;20027;-48
2022/01/06 19:21:43;;;;;;;40.60;15.18;;;3.10;89.90;;;;;;5138469;27;20455;-51
2022/01/06 19:24:10;;;;;;;28.38;13.07;;;3.00;89.80;;;;;;5138207;27;20136;-50
2022/01/06 19:26:36;;;;;;;26.33;12.15;;;3.00;90.00;;;;;;5138560;27;20516;-52
2022/01/06 19:29:03;;;;;;;44.63;14.85;;;3.10;90.00;;;;;;5138175;27;20016;-48
2022/01/06 19:31:28;;;;;;;33.50;12.93;;;3.10;89.80;;;;;;5136631;27;20030;-50
2022/01/06 19:33:54;;;;;;;34.50;13.82;;;3.10;89.80;;;;;;5137872;27;20043;-51
2022/01/06 19:36:20;;;;;;;39.22;13.07;;;2.90;89.80;;;;;;5137749;27;20478;-48
2022/01/06 19:38:46;;;;;;;41.08;15.02;;;2.90;90.00;;;;;;5138124;27;20037;-53
2022/01/06 19:41:11;;;;;;;38.88;12.38;;;2.90;90.00;;;;;;5138107;27;20026;-48
2022/01/06 19:43:37;;;;;;;37.22;12.88;;;2.90;90.00;;;;;;5136972;27;20080;-50
2022/01/06 19:46:03;;;;;;;26.73;11.00;;;2.90;89.90;;;;;;5136115;27;20023;-48
2022/01/06 19:48:28;;;;;;;43.13;13.60;;;2.90;90.00;;;;;;5136432;27;20041;-48
2022/01/06 19:50:55;;;;;;;39.20;13.27;;;3.00;89.80;;;;;;5136960;27;20474;-50
2022/01/06 19:53:21;;;;;;;31.63;12.30;;;3.00;89.70;;;;;;5136907;27;20033;-48
2022/01/06 19:55:48;;;;;;;23.55;10.23;;;3.00;89.70;;;;;;5136754;27;20023;-48
2022/01/06 19:58:14;;;;;;;29.05;10.77;;;3.00;89.60;;;;;;5137151;27;20075;-49
2022/01/06 20:00:40;;;;;;;33.40;12.23;;;3.00;89.60;;;;;;5136254;27;20023;-47
2022/01/06 20:03:07;;;;;;;37.63;14.25;;;3.00;89.60;;;;;;5137331;27;20023;-48
2022/01/06 20:05:34;;;;;;;32.55;11.60;;;3.00;89.60;;;;;;5137971;27;20042;-51
2022/01/06 20:08:00;;;;;;;29.20;10.52;;;3.00;89.40;;;;;;5138262;27;20493;-50
2022/01/06 20:10:25;;;;;;;40.67;12.23;;;3.00;89.40;;;;;;5135461;27;20019;-48
2022/01/06 20:12:52;;;;;;;25.52;8.82;;;2.90;89.30;;;;;;5136446;27;20034;-48
2022/01/06 20:15:18;;;;;;;37.38;10.73;;;2.90;89.30;;;;;;5137160;27;20023;-50
2022/01/06 20:17:44;;;;;;;27.33;9.93;;;2.90;89.30;;;;;;5137117;27;20416;-48
2022/01/06 20:20:15;;;;;;;34.60;11.30;;;2.90;89.50;;;;;;5138333;27;20107;-48
2022/01/06 20:22:48;;;;;;;32.53;11.20;;;2.90;89.30;;;;;;5137358;27;20412;-47
2022/01/06 20:25:18;;;;;;;36.75;11.73;;;2.90;89.20;;;;;;5137721;27;20027;-47
2022/01/06 20:27:44;;;;;;;36.40;11.07;;;2.90;89.00;;;;;;5137635;27;20477;-49
2022/01/06 20:30:11;;;;;;;25.60;10.13;;;2.90;89.10;;;;;;5136077;27;20031;-49
2022/01/06 20:32:36;;;;;;;29.50;11.80;;;2.90;88.90;;;;;;5136166;27;20019;-50
2022/01/06 20:35:03;;;;;;;47.58;12.80;;;2.90;88.90;;;;;;5136378;27;20037;-48
2022/01/06 20:37:30;;;;;;;25.45;10.32;;;2.90;89.00;;;;;;5136342;27;20051;-49
2022/01/06 20:39:55;;;;;;;29.25;11.63;;;2.80;88.80;;;;;;5135249;27;20037;-49
2022/01/06 20:42:23;;;;;;;24.75;10.48;;;2.80;88.70;;;;;;5136494;27;20027;-51
2022/01/06 20:44:49;;;;;;;19.27;8.50;;;2.80;88.50;;;;;;5134369;27;20463;-49
2022/01/06 20:47:33;;;;;;;31.17;9.40;;;2.90;88.40;;;;;;5135921;27;20026;-49
2022/01/06 20:52:44;;;;;;;23.80;9.82;;;2.90;88.30;;;;;;5136013;27;20104;-48
2022/01/06 20:55:11;;;;;;;26.90;10.70;;;2.80;88.40;;;;;;5136204;27;20072;-47
2022/01/06 20:57:37;;;;;;;20.70;10.35;;;2.80;88.80;;;;;;5134908;27;20031;-50
2022/01/06 21:00:06;;;;;;;21.80;9.93;;;2.80;88.90;;;;;;5135799;27;20034;-50
2022/01/06 21:02:31;;;;;;;29.80;10.55;;;2.80;88.60;;;;;;5134902;27;20035;-49
2022/01/06 21:04:57;;;;;;;24.95;10.13;;;2.80;88.60;;;;;;5133877;27;20019;-49
2022/01/06 21:08:00;;;;;;;26.08;9.80;;;2.90;88.50;;;;;;5138695;27;20028;-51
2022/01/06 21:10:27;;;;;;;23.35;8.52;;;2.80;88.60;;;;;;5134736;27;20030;-50
2022/01/06 21:12:54;;;;;;;31.20;10.35;;;2.80;88.60;;;;;;5135575;27;20031;-47
2022/01/06 21:15:20;;;;;;;22.58;8.68;;;2.80;88.60;;;;;;5136223;27;20102;-52
2022/01/06 21:17:47;;;;;;;28.55;9.45;;;2.80;88.60;;;;;;5135085;27;20053;-50
2022/01/06 21:20:13;;;;;;;20.30;9.50;;;2.80;88.50;;;;;;5134559;27;20442;-49
2022/01/06 21:22:39;;;;;;;18.38;8.73;;;2.80;88.80;;;;;;5135288;27;20362;-50
2022/01/06 21:25:09;;;;;;;24.88;8.35;;;2.80;88.50;;;;;;5134917;27;20035;-48
2022/01/06 21:27:36;;;;;;;21.27;7.30;;;2.80;88.50;;;;;;5135931;27;20011;-50
2022/01/06 21:30:04;;;;;;;22.83;10.15;;;2.80;88.00;;;;;;5135839;27;20034;-50
2022/01/06 21:32:29;;;;;;;12.20;7.03;;;2.80;88.00;;;;;;5136345;27;20485;-52
2022/01/06 21:34:55;;;;;;;28.42;8.98;;;2.80;87.90;;;;;;5135572;27;20102;-49
2022/01/06 21:37:23;;;;;;;16.40;7.50;;;2.80;87.90;;;;;;5134851;27;20021;-48
2022/01/06 21:39:52;;;;;;;13.30;6.90;;;2.80;87.60;;;;;;5135486;27;20059;-48
2022/01/06 21:42:18;;;;;;;26.27;7.10;;;2.80;87.50;;;;;;5134104;27;20110;-48
2022/01/06 21:44:44;;;;;;;20.52;7.60;;;2.80;87.20;;;;;;5134980;27;20482;-49
2022/01/06 21:47:10;;;;;;;21.48;6.20;;;2.80;87.10;;;;;;5134690;27;20019;-48
2022/01/06 21:49:35;;;;;;;19.55;7.25;;;2.80;86.80;;;;;;5136157;27;20019;-48
2022/01/06 21:52:01;;;;;;;18.30;5.93;;;2.90;86.40;;;;;;5135381;27;20034;-50
2022/01/06 21:54:27;;;;;;;22.98;8.02;;;2.90;86.50;;;;;;5134510;27;20034;-50
2022/01/06 21:56:52;;;;;;;17.23;7.07;;;2.80;86.50;;;;;;5135337;27;20514;-50
2022/01/06 21:59:18;;;;;;;25.20;7.95;;;2.80;86.20;;;;;;5135020;27;20352;-48
2022/01/06 22:01:44;;;;;;;18.80;6.45;;;2.80;86.40;;;;;;5135791;28;20039;-50
2022/01/06 22:04:10;;;;;;;16.52;6.00;;;2.90;86.30;;;;;;5134697;28;20459;-49
2022/01/06 22:06:37;;;;;;;20.80;7.30;;;2.90;86.30;;;;;;5135782;28;20110;-49
2022/01/06 22:09:05;;;;;;;28.13;7.22;;;2.80;86.20;;;;;;5133776;28;20042;-48
2022/01/06 22:11:31;;;;;;;20.98;7.30;;;2.80;85.70;;;;;;5134415;28;20046;-49
2022/01/06 22:13:59;;;;;;;19.73;5.50;;;2.80;85.80;;;;;;5134868;28;20035;-47
2022/01/06 22:16:25;;;;;;;17.98;7.15;;;2.80;85.90;;;;;;5134445;28;20497;-48
2022/01/06 22:18:51;;;;;;;15.05;5.50;;;2.80;86.10;;;;;;5133912;28;20020;-49
2022/01/06 22:21:16;;;;;;;18.10;6.68;;;2.80;86.10;;;;;;5132778;28;20023;-49
2022/01/06 22:23:42;;;;;;;15.82;5.53;;;2.80;85.60;;;;;;5136717;27;20324;-50
2022/01/06 22:26:08;;;;;;;14.68;5.75;;;2.80;85.50;;;;;;5138964;27;20054;-50
2022/01/06 22:28:34;;;;;;;17.73;5.25;;;2.80;85.40;;;;;;5138811;27;20068;-49
2022/01/06 22:31:00;;;;;;;20.23;5.07;;;2.80;85.30;;;;;;5137451;27;20027;-49
2022/01/06 22:33:25;;;;;;;16.33;5.30;;;2.90;85.00;;;;;;5138863;27;20493;-48
2022/01/06 22:35:51;;;;;;;14.10;5.20;;;2.80;84.80;;;;;;5139057;27;20027;-49
2022/01/06 22:38:21;;;;;;;14.07;5.20;;;2.90;84.40;;;;;;5139556;27;20027;-49
2022/01/06 22:40:50;;;;;;;17.42;4.85;;;2.90;84.00;;;;;;5138482;27;20023;-47
2022/01/06 22:43:16;;;;;;;11.63;5.20;;;2.90;83.90;;;;;;5138479;27;20386;-48
2022/01/06 22:45:41;;;;;;;12.48;5.55;;;2.90;83.90;;;;;;5138390;27;20015;-49
2022/01/06 22:48:07;;;;;;;16.75;5.25;;;3.00;83.50;;;;;;5138292;27;20072;-49
2022/01/06 22:50:34;;;;;;;18.35;4.75;;;3.00;83.30;;;;;;5138279;27;20094;-48